Time;durP1;ratioP1;P1;durP2;ratioP2;P2;SDS_P1;SDS_P2;PMS_P1;PMS_P2;Temp;Humidity;BMP_temperature;BMP_pressure;BME280_temperature;BME280_humidity;BME280_pressure;Samples;Min_cycle;Max_cycle;Signal;HPM_P1;HPM_P2
2022/08/11 00:01:30;;;;;;;;;;;;;;;19.93;100.00;99881.00;5051780;28;19948;-76
2022/08/11 00:04:02;;;;;;;;;;;;;;;19.44;100.00;99887.41;5051723;28;19932;-76
2022/08/11 00:06:36;;;;;;;;;;;;;;;19.03;100.00;99876.41;5051576;28;19924;-76
2022/08/11 00:09:07;;;;;;;;;;;;;;;19.55;100.00;99878.47;5051989;28;19932;-76
2022/08/11 00:11:41;;;;;;;;;;;;;;;19.93;100.00;99875.31;5052788;28;19928;-76
2022/08/11 00:14:14;;;;;;;;;;;;;;;19.86;100.00;99869.94;5068187;28;20295;-76
2022/08/11 00:16:43;;;;;;;;;;;;;;;19.82;100.00;99870.09;5084912;28;19947;-76
2022/08/11 00:19:10;;;;;;;;;;;;;;;19.82;100.00;99863.63;5085733;28;20359;-76
2022/08/11 00:21:39;;;;;;;;;;;;;;;19.99;100.00;99867.78;5085319;28;19932;-76
2022/08/11 00:24:07;;;;;;;;;;;;;;;20.12;100.00;99877.75;5035335;28;19925;-76
2022/08/11 00:26:35;;;;;;;;;;;;;;;20.29;100.00;99879.06;5053224;28;20355;-76
2022/08/11 00:29:09;;;;;;;;;;;;;;;20.06;100.00;99878.81;5068738;28;19932;-76
2022/08/11 00:31:37;;;;;;;;;;;;;;;19.06;100.00;99886.81;5035658;28;20296;-76
2022/08/11 00:34:09;;;;;;;;;;;;;;;18.94;100.00;99896.16;5035252;28;19963;-76
2022/08/11 00:36:46;;;;;;;;;;;;;;;19.46;100.00;99878.44;5055747;28;19924;-76
2022/08/11 00:39:16;;;;;;;;;;;;;;;19.61;100.00;99879.44;5055646;28;19968;-76
2022/08/11 00:41:54;;;;;;;;;;;;;;;19.59;100.00;99882.75;5072685;28;20272;-76
2022/08/11 00:44:31;;;;;;;;;;;;;;;19.63;100.00;99880.56;5055688;28;20368;-76
2022/08/11 00:47:02;;;;;;;;;;;;;;;19.59;100.00;99879.91;5056830;28;19924;-76
2022/08/11 00:49:44;;;;;;;;;;;;;;;19.47;100.00;99875.13;5071922;28;19924;-76
2022/08/11 00:52:29;;;;;;;;;;;;;;;19.57;100.00;99888.09;5055389;28;19932;-76
2022/08/11 00:55:32;;;;;;;;;;;;;;;19.56;100.00;99874.38;5071828;28;19925;-76
2022/08/11 00:58:18;;;;;;;;;;;;;;;19.28;100.00;99876.25;5050787;28;19925;-76
2022/08/11 01:01:03;;;;;;;;;;;;;;;19.21;100.00;99875.72;5017789;28;19946;-76
2022/08/11 01:03:33;;;;;;;;;;;;;;;19.33;100.00;99881.34;5001044;28;19925;-76
2022/08/11 01:06:18;;;;;;;;;;;;;;;19.10;100.00;99869.69;5034064;28;20288;-76
2022/08/11 01:09:01;;;;;;;;;;;;;;;19.49;100.00;99869.75;5033871;28;20366;-76
2022/08/11 01:11:42;;;;;;;;;;;;;;;19.15;100.00;99867.03;5017588;28;20300;-76
2022/08/11 01:14:08;;;;;;;;;;;;;;;19.16;100.00;99868.59;5001278;28;19932;-76
2022/08/11 01:16:54;;;;;;;;;;;;;;;18.79;100.00;99866.78;5017460;28;19925;-76
2022/08/11 01:19:39;;;;;;;;;;;;;;;18.26;100.00;99872.69;5033755;28;19925;-76
2022/08/11 01:22:15;;;;;;;;;;;;;;;18.65;100.00;99872.94;5017083;28;19940;-76
2022/08/11 01:25:01;;;;;;;;;;;;;;;18.98;100.00;99874.16;5017042;28;19925;-76
2022/08/11 01:27:40;;;;;;;;;;;;;;;18.87;100.00;99870.91;5033850;28;19925;-76
2022/08/11 01:30:07;;;;;;;;;;;;;;;18.24;100.00;99875.19;5050491;28;19959;-76
2022/08/11 01:32:46;;;;;;;;;;;;;;;17.87;100.00;99871.97;5048445;28;20251;-76
2022/08/11 01:35:31;;;;;;;;;;;;;;;18.04;100.00;99869.78;5054543;28;19932;-76
2022/08/11 01:37:58;;;;;;;;;;;;;;;18.58;100.00;99866.75;5071329;28;19925;-76
2022/08/11 01:40:28;;;;;;;;;;;;;;;18.71;100.00;99865.44;5054602;28;19925;-76
2022/08/11 01:46:05;;;;;;;;;;;;;;;18.87;100.00;99856.75;5038203;28;20300;-76
2022/08/11 01:48:47;;;;;;;;;;;;;;;18.97;100.00;99864.09;5070412;28;19925;-76
2022/08/11 01:51:24;;;;;;;;;;;;;;;18.80;100.00;99868.34;5054345;28;20015;-76
2022/08/11 01:53:55;;;;;;;;;;;;;;;18.78;100.00;99865.19;5070838;28;19929;-76
2022/08/11 01:56:41;;;;;;;;;;;;;;;19.06;100.00;99864.13;5054267;28;19948;-76
2022/08/11 01:59:12;;;;;;;;;;;;;;;19.08;100.00;99861.66;5087584;28;19932;-76
2022/08/11 02:01:50;;;;;;;;;;;;;;;19.12;100.00;99862.28;5054030;28;19925;-76
2022/08/11 02:04:35;;;;;;;;;;;;;;;18.49;100.00;99870.31;5070575;28;19925;-76
2022/08/11 02:07:02;;;;;;;;;;;;;;;18.70;100.00;99868.75;5037623;28;19932;-76
2022/08/11 02:09:48;;;;;;;;;;;;;;;17.86;100.00;99866.75;5087120;28;19960;-76
2022/08/11 02:12:15;;;;;;;;;;;;;;;17.65;100.00;99871.06;5070590;28;19929;-76
2022/08/11 02:14:48;;;;;;;;;;;;;;;17.93;100.00;99872.19;5053797;28;19951;-76
2022/08/11 02:17:21;;;;;;;;;;;;;;;18.27;100.00;99872.25;5054792;28;19936;-76
2022/08/11 02:25:36;;;;;;;;;;;;;;;18.72;100.00;99867.03;5070335;28;19931;-76
2022/08/11 02:28:07;;;;;;;;;;;;;;;18.61;100.00;99860.97;5053679;28;19974;-76
2022/08/11 02:30:37;;;;;;;;;;;;;;;18.63;100.00;99866.94;5070119;28;19931;-76
2022/08/11 02:33:23;;;;;;;;;;;;;;;18.52;100.00;99866.56;5069952;28;20310;-76
2022/08/11 02:35:50;;;;;;;;;;;;;;;18.47;100.00;99852.19;5020549;28;19925;-76
2022/08/11 02:38:23;;;;;;;;;;;;;;;18.42;100.00;99859.22;5053385;28;19925;-76
2022/08/11 02:42:21;;;;;;;;;;;;;;;18.47;100.00;99861.47;5086972;28;19924;-76
2022/08/11 02:43:58;;;;;;;;;;;;;;;18.36;100.00;99855.34;5054427;28;20386;-76
2022/08/11 02:46:36;;;;;;;;;;;;;;;18.39;100.00;99854.47;5053106;28;19929;-76
2022/08/11 02:52:18;;;;;;;;;;;;;;;18.25;100.00;99866.25;5053220;28;19929;-76
2022/08/11 02:55:00;;;;;;;;;;;;;;;17.56;100.00;99859.66;5036620;28;20027;-76
2022/08/11 02:57:39;;;;;;;;;;;;;;;17.26;100.00;99867.84;5053365;28;19925;-76
2022/08/11 03:00:14;;;;;;;;;;;;;;;17.90;100.00;99862.56;5035532;28;19925;-76
2022/08/11 03:02:41;;;;;;;;;;;;;;;17.98;100.00;99860.31;5086432;28;19924;-76
2022/08/11 03:05:10;;;;;;;;;;;;;;;17.77;100.00;99861.00;5069689;28;19924;-76
2022/08/11 03:07:56;;;;;;;;;;;;;;;17.88;100.00;99859.44;5086093;28;19924;-76
2022/08/11 03:10:42;;;;;;;;;;;;;;;17.65;100.00;99856.16;5052943;28;19929;-76
2022/08/11 03:19:17;;;;;;;;;;;;;;;17.96;100.00;99855.09;5019657;28;19940;-76
2022/08/11 03:22:03;;;;;;;;;;;;;;;18.05;100.00;99868.56;5086124;28;20388;-76
2022/08/11 03:24:30;;;;;;;;;;;;;;;17.97;100.00;99858.72;5052588;28;19931;-76
2022/08/11 03:27:00;;;;;;;;;;;;;;;17.84;100.00;99857.97;5054038;28;19979;-76
2022/08/11 03:29:33;;;;;;;;;;;;;;;17.61;100.00;99850.63;5069189;28;20502;-76
2022/08/11 03:32:04;;;;;;;;;;;;;;;17.16;100.00;99863.31;5069469;28;20283;-76
2022/08/11 03:34:35;;;;;;;;;;;;;;;17.19;100.00;99857.53;5052782;28;19925;-76
2022/08/11 03:43:25;;;;;;;;;;;;;;;17.60;100.00;99856.69;5031329;28;19948;-76
2022/08/11 03:46:14;;;;;;;;;;;;;;;17.31;100.00;99847.53;5048053;28;20336;-76
2022/08/11 03:49:02;;;;;;;;;;;;;;;17.49;100.00;99845.75;5048149;28;19967;-76
2022/08/11 03:51:31;;;;;;;;;;;;;;;17.54;100.00;99852.84;5031608;28;19931;-76
2022/08/11 03:54:21;;;;;;;;;;;;;;;17.51;100.00;99846.09;4982645;28;19948;-76
2022/08/11 03:56:51;;;;;;;;;;;;;;;17.67;100.00;99846.00;5014883;28;19968;-76
2022/08/11 03:59:36;;;;;;;;;;;;;;;17.69;100.00;99846.31;5047812;28;19955;-76
2022/08/11 04:02:25;;;;;;;;;;;;;;;17.51;100.00;99843.25;5015006;28;19991;-76
2022/08/11 04:04:59;;;;;;;;;;;;;;;16.52;100.00;99841.78;5031300;28;20464;-76
2022/08/11 04:07:44;;;;;;;;;;;;;;;16.44;100.00;99840.38;4998658;28;19932;-76
2022/08/11 04:10:26;;;;;;;;;;;;;;;17.10;100.00;99848.94;5015426;28;19972;-76
2022/08/11 04:13:13;;;;;;;;;;;;;;;17.47;100.00;99844.63;5034926;28;19925;-76
2022/08/11 04:15:59;;;;;;;;;;;;;;;17.55;100.00;99840.34;5035124;28;19975;-76
2022/08/11 04:18:30;;;;;;;;;;;;;;;17.48;100.00;99847.00;5046582;28;19931;-76
2022/08/11 04:20:58;;;;;;;;;;;;;;;17.44;100.00;99839.88;5057498;28;19925;-76
2022/08/11 04:23:43;;;;;;;;;;;;;;;17.45;100.00;99835.78;5056042;28;20021;-76
2022/08/11 04:26:32;;;;;;;;;;;;;;;17.34;100.00;99836.09;5056008;28;19924;-76
2022/08/11 04:29:19;;;;;;;;;;;;;;;17.34;100.00;99840.97;5089512;28;20322;-76
2022/08/11 04:31:49;;;;;;;;;;;;;;;16.39;100.00;99849.34;5072435;28;19931;-76
2022/08/11 04:34:18;;;;;;;;;;;;;;;16.02;100.00;99847.91;5072722;28;19925;-76
2022/08/11 04:39:59;;;;;;;;;;;;;;;16.90;100.00;99844.72;5057118;28;19925;-76
2022/08/11 04:45:57;;;;;;;;;;;;;;;16.52;100.00;99830.50;5072367;28;19932;-76
2022/08/11 05:03:04;;;;;;;;;;;;;;;17.32;100.00;99827.31;5055516;28;19925;-76
2022/08/11 05:05:49;;;;;;;;;;;;;;;16.94;100.00;99834.13;5072030;28;19928;-76
2022/08/11 05:08:35;;;;;;;;;;;;;;;17.10;100.00;99834.81;5071976;28;20332;-76
2022/08/11 05:11:02;;;;;;;;;;;;;;;17.28;100.00;99837.13;5088457;28;20368;-76
2022/08/11 05:36:25;;;;;;;;;;;;;;;17.46;100.00;99843.03;5038249;28;19924;-76
2022/08/11 05:58:41;;;;;;;;;;;;;;;18.30;100.00;99840.22;5054326;28;19932;-76
2022/08/11 06:01:13;;;;;;;;;;;;;;;18.38;100.00;99843.59;5055540;28;19978;-76
2022/08/11 06:06:30;;;;;;;;;;;;;;;18.53;100.00;99858.84;5054165;28;19924;-76
2022/08/11 06:08:58;;;;;;;;;;;;;;;18.66;100.00;99857.53;5053930;28;20023;-76
2022/08/11 06:11:25;;;;;;;;;;;;;;;18.82;100.00;99840.38;5087407;28;19936;-76
2022/08/11 06:13:53;;;;;;;;;;;;;;;19.03;100.00;99842.41;5087481;28;20019;-76
2022/08/11 06:16:26;;;;;;;;;;;;;;;19.13;100.00;99840.44;5055195;28;20016;-76
2022/08/11 06:18:54;;;;;;;;;;;;;;;19.28;100.00;99845.09;5055191;28;19932;-76
2022/08/11 06:21:21;;;;;;;;;;;;;;;19.29;100.00;99843.88;5053924;28;19924;-75
2022/08/11 06:23:48;;;;;;;;;;;;;;;19.53;100.00;99836.41;5053186;28;19924;-76
2022/08/11 06:26:16;;;;;;;;;;;;;;;19.72;100.00;99837.25;5054914;28;19957;-76
2022/08/11 06:28:44;;;;;;;;;;;;;;;19.86;100.00;99841.59;5053769;28;19925;-76
2022/08/11 06:31:19;;;;;;;;;;;;;;;19.96;100.00;99843.19;5087244;28;19924;-75
2022/08/11 06:33:49;;;;;;;;;;;;;;;19.91;100.00;99850.25;5086976;28;19925;-75
2022/08/11 06:36:25;;;;;;;;;;;;;;;20.00;100.00;99838.94;5054734;28;19925;-76
2022/08/11 06:39:01;;;;;;;;;;;;;;;20.28;100.00;99842.66;5070088;28;19959;-75
2022/08/11 06:41:48;;;;;;;;;;;;;;;20.50;100.00;99846.13;5086940;28;19924;-75
2022/08/11 06:44:21;;;;;;;;;;;;;;;20.70;100.00;99843.63;5054189;28;19935;-76
2022/08/11 06:46:53;;;;;;;;;;;;;;;20.87;100.00;99850.56;5069423;28;19925;-75
2022/08/11 06:52:15;;;;;;;;;;;;;;;21.19;100.00;99849.91;5054125;28;19932;-75
2022/08/11 06:54:56;;;;;;;;;;;;;;;21.37;100.00;99847.03;5069274;28;19932;-75
2022/08/11 07:00:27;;;;;;;;;;;;;;;21.79;100.00;99838.50;5069287;28;19949;-76
2022/08/11 07:02:59;;;;;;;;;;;;;;;22.27;100.00;99835.22;5054146;28;19924;-76
2022/08/11 07:05:26;;;;;;;;;;;;;;;23.16;100.00;99832.09;5069678;28;19932;-76
2022/08/11 07:16:25;;;;;;;;;;;;;;;28.38;100.00;99792.94;5052803;28;19932;-76
2022/08/11 07:30:17;;;;;;;;;;;;;;;32.96;100.00;99761.78;5052543;28;20349;-77
2022/08/11 07:32:54;;;;;;;;;;;;;;;33.52;100.00;99766.25;5052855;28;20011;-76
2022/08/11 07:35:26;;;;;;;;;;;;;;;33.67;100.00;99766.38;5052248;28;19925;-76
2022/08/11 07:37:56;;;;;;;;;;;;;;;33.79;100.00;99761.84;5069062;28;19925;-75
2022/08/11 07:40:24;;;;;;;;;;;;;;;34.13;100.00;99765.41;5085933;28;19925;-76
2022/08/11 07:42:51;;;;;;;;;;;;;;;34.34;100.00;99769.00;5085832;28;19935;-76
2022/08/11 07:53:37;;;;;;;;;;;;;;;34.13;100.00;99762.50;5052136;28;19924;-76
2022/08/11 07:56:05;;;;;;;;;;;;;;;34.77;100.00;99771.97;5052018;28;20048;-76
2022/08/11 08:18:02;;;;;;;;;;;;;;;36.13;100.00;99773.00;5052820;28;19925;-76
2022/08/11 08:20:31;;;;;;;;;;;;;;;36.48;100.00;99774.13;5052109;28;20335;-76
2022/08/11 08:23:00;;;;;;;;;;;;;;;35.59;100.00;99759.84;5034926;28;20445;-76
2022/08/11 08:25:29;;;;;;;;;;;;;;;36.15;100.00;99762.38;5035175;28;20667;-76
2022/08/11 08:27:57;;;;;;;;;;;;;;;35.28;100.00;99764.03;5085184;28;20283;-76
2022/08/11 08:33:21;;;;;;;;;;;;;;;35.89;100.00;99765.69;5051725;28;19959;-76
2022/08/11 08:35:51;;;;;;;;;;;;;;;34.30;100.00;99757.00;5035356;28;19925;-76
2022/08/11 08:38:18;;;;;;;;;;;;;;;35.63;100.00;99766.03;5051296;28;20357;-75
2022/08/11 08:40:50;;;;;;;;;;;;;;;36.48;100.00;99765.41;5051938;28;19964;-76
2022/08/11 08:43:17;;;;;;;;;;;;;;;36.95;100.00;99759.59;5052993;28;19925;-76
2022/08/11 08:45:44;;;;;;;;;;;;;;;37.38;100.00;99762.09;5051922;28;19968;-75
2022/08/11 08:48:15;;;;;;;;;;;;;;;37.12;100.00;99756.81;5051337;28;19925;-76
2022/08/11 08:53:34;;;;;;;;;;;;;;;37.18;100.00;99754.44;5072863;28;20016;-76
2022/08/11 08:56:01;;;;;;;;;;;;;;;36.68;100.00;99770.19;5071715;28;19993;-75
2022/08/11 08:58:29;;;;;;;;;;;;;;;36.77;100.00;99755.81;5074906;28;19924;-76
2022/08/11 09:00:57;;;;;;;;;;;;;;;37.34;100.00;99750.06;5075109;28;19935;-76
2022/08/11 09:03:26;;;;;;;;;;;;;;;36.34;100.00;99758.28;5058546;28;19928;-75
2022/08/11 09:06:10;;;;;;;;;;;;;;;35.04;100.00;99750.03;5058513;28;19950;-75
2022/08/11 09:08:39;;;;;;;;;;;;;;;35.58;100.00;99749.56;5058176;28;19932;-76
2022/08/11 09:13:53;;;;;;;;;;;;;;;35.29;100.00;99756.88;5076156;28;19924;-75
2022/08/11 09:16:21;;;;;;;;;;;;;;;36.24;100.00;99749.34;5074581;28;19990;-75
2022/08/11 09:18:48;;;;;;;;;;;;;;;35.98;100.00;99746.88;5058131;28;19932;-76
2022/08/11 09:21:17;;;;;;;;;;;;;;;37.05;100.00;99737.25;5074777;28;19928;-76
2022/08/11 09:29:18;;;;;;;;;;;;;;;35.77;100.00;99747.06;5075792;28;19928;-76
2022/08/11 09:31:45;;;;;;;;;;;;;;;36.57;99.38;99735.69;5074303;28;20059;-76
2022/08/11 09:34:13;;;;;;;;;;;;;;;37.21;95.94;99729.97;5075622;28;19924;-76
2022/08/11 09:42:15;;;;;;;;;;;;;;;36.01;93.04;99726.13;5057531;28;19925;-76
2022/08/11 09:44:48;;;;;;;;;;;;;;;33.16;91.91;99730.53;5075473;28;19924;-76
2022/08/11 09:47:18;;;;;;;;;;;;;;;33.51;89.97;99722.00;5074133;28;20038;-76
2022/08/11 09:49:47;;;;;;;;;;;;;;;33.10;92.12;99727.00;5075334;28;19958;-75
2022/08/11 09:52:17;;;;;;;;;;;;;;;33.28;93.54;99723.13;5063481;28;19924;-75
2022/08/11 09:54:46;;;;;;;;;;;;;;;32.58;94.32;99733.72;5086869;28;19986;-76
2022/08/11 09:59:59;;;;;;;;;;;;;;;33.02;94.79;99729.81;5073736;28;19924;-75
2022/08/11 10:02:28;;;;;;;;;;;;;;;31.54;95.81;99727.84;5074035;28;19929;-75
2022/08/11 10:07:00;;;;;;;;;;;;;;;31.06;98.18;99728.91;5072978;28;20413;-75
2022/08/11 10:07:49;;;;;;;;;;;;;;;31.04;98.06;99723.69;5073301;28;20456;-74
2022/08/11 10:10:21;;;;;;;;;;;;;;;31.62;99.00;99732.44;5040398;28;19932;-75
2022/08/11 10:12:56;;;;;;;;;;;;;;;32.25;96.57;99717.81;5074996;28;19947;-75
2022/08/11 10:15:34;;;;;;;;;;;;;;;32.25;100.00;99723.59;5073571;28;19924;-75
2022/08/11 10:18:50;;;;;;;;;;;;;;;31.79;100.00;99732.91;5073059;28;19928;-75
2022/08/11 10:21:34;;;;;;;;;;;;;;;32.61;97.45;99721.00;5057397;28;19924;-75
2022/08/11 10:26:53;;;;;;;;;;;;;;;33.41;98.28;99723.06;5074718;28;19928;-75
2022/08/11 10:34:53;;;;;;;;;;;;;;;31.81;100.00;99715.78;5073258;28;20438;-75
2022/08/11 10:37:21;;;;;;;;;;;;;;;31.91;100.00;99716.16;5073389;28;20031;-77
2022/08/11 10:39:49;;;;;;;;;;;;;;;31.66;100.00;99712.66;5090350;28;20344;-74
2022/08/11 10:48:01;;;;;;;;;;;;;;;32.29;100.00;99711.69;5073699;28;20356;-75
2022/08/11 10:58:50;;;;;;;;;;;;;;;33.37;96.03;99690.78;5073087;28;19980;-75
2022/08/11 11:01:23;;;;;;;;;;;;;;;33.42;99.17;99695.66;5055680;28;20359;-76
2022/08/11 11:03:53;;;;;;;;;;;;;;;31.48;96.52;99690.41;5072067;28;19928;-75
2022/08/11 11:06:43;;;;;;;;;;;;;;;32.50;95.62;99690.22;5072464;28;19924;-79
2022/08/11 11:09:22;;;;;;;;;;;;;;;33.03;94.70;99690.84;5072820;28;19947;-79
2022/08/11 11:20:26;;;;;;;;;;;;;;;32.33;100.00;99692.66;5013709;28;19925;-79
2022/08/11 11:22:55;;;;;;;;;;;;;;;32.33;99.17;99689.78;5014112;28;19976;-80
2022/08/11 11:25:29;;;;;;;;;;;;;;;32.92;98.51;99688.22;5030815;28;20320;-79
2022/08/11 11:28:05;;;;;;;;;;;;;;;33.63;98.89;99684.81;5014433;28;20014;-80
2022/08/11 11:30:53;;;;;;;;;;;;;;;33.51;95.19;99680.66;5014345;28;19925;-79
2022/08/11 11:33:29;;;;;;;;;;;;;;;33.88;93.60;99672.28;5014471;28;20288;-80
2022/08/11 11:36:12;;;;;;;;;;;;;;;33.32;98.07;99671.41;5014475;28;20027;-80
2022/08/11 11:38:40;;;;;;;;;;;;;;;31.87;95.67;99670.25;5014065;28;19925;-79
2022/08/11 11:41:26;;;;;;;;;;;;;;;32.09;96.45;99681.38;5013823;28;20063;-79
2022/08/11 11:43:55;;;;;;;;;;;;;;;31.93;99.33;99682.47;5014023;28;19926;-79
2022/08/11 11:46:27;;;;;;;;;;;;;;;32.08;98.35;99676.91;5014143;28;19925;-79
2022/08/11 11:48:56;;;;;;;;;;;;;;;32.44;97.12;99671.44;5014183;28;19932;-79
2022/08/11 11:51:24;;;;;;;;;;;;;;;33.07;98.76;99667.34;4997901;28;19932;-79
2022/08/11 11:53:51;;;;;;;;;;;;;;;33.59;98.11;99672.81;5006466;28;19929;-80
2022/08/11 11:56:21;;;;;;;;;;;;;;;33.70;96.12;99669.63;5069392;28;19935;-80
2022/08/11 12:01:34;;;;;;;;;;;;;;;33.44;96.25;99669.81;5053277;28;20007;-79
2022/08/11 12:04:04;;;;;;;;;;;;;;;33.79;95.36;99654.63;5053217;28;19956;-79
2022/08/11 12:06:32;;;;;;;;;;;;;;;33.24;92.70;99656.09;5053469;28;20399;-79
2022/08/11 12:08:59;;;;;;;;;;;;;;;33.72;90.81;99643.72;5070173;28;19924;-79
2022/08/11 12:14:14;;;;;;;;;;;;;;;33.47;94.28;99652.06;5070912;28;19925;-78
2022/08/11 12:16:43;;;;;;;;;;;;;;;33.43;95.61;99648.00;5054274;28;19931;-79
2022/08/11 12:19:14;;;;;;;;;;;;;;;31.94;95.81;99652.25;5038249;28;19967;-78
2022/08/11 12:27:22;;;;;;;;;;;;;;;33.63;93.32;99632.66;5071213;28;19978;-79
2022/08/11 12:30:09;;;;;;;;;;;;;;;33.77;92.68;99642.81;5054652;28;19947;-80
2022/08/11 12:32:37;;;;;;;;;;;;;;;33.66;89.49;99637.31;5107781;28;19924;-80
2022/08/11 12:35:04;;;;;;;;;;;;;;;33.47;91.24;99645.50;5075037;28;20455;-79
2022/08/11 12:37:35;;;;;;;;;;;;;;;31.94;92.27;99649.38;5074776;28;20007;-79
2022/08/11 12:45:39;;;;;;;;;;;;;;;33.40;92.47;99634.66;5076306;28;19924;-76
2022/08/11 12:53:45;;;;;;;;;;;;;;;32.38;95.60;99639.75;5074502;28;19968;-75
2022/08/11 13:07:16;;;;;;;;;;;;;;;32.93;94.21;99614.50;5075656;28;20392;-75
2022/08/11 13:09:44;;;;;;;;;;;;;;;33.50;94.62;99618.28;5107897;28;19931;-75
2022/08/11 13:14:58;;;;;;;;;;;;;;;33.84;91.18;99610.22;5075712;28;19928;-76
2022/08/11 13:17:28;;;;;;;;;;;;;;;33.16;92.85;99608.94;5074304;28;19932;-76
2022/08/11 13:19:58;;;;;;;;;;;;;;;33.55;94.14;99612.34;5075440;28;19925;-75
2022/08/11 13:22:26;;;;;;;;;;;;;;;33.01;90.84;99598.78;5075336;28;19924;-75
2022/08/11 13:24:54;;;;;;;;;;;;;;;33.90;93.49;99600.00;5073899;28;19967;-76
2022/08/11 13:27:21;;;;;;;;;;;;;;;34.25;90.40;99593.41;5074080;28;19925;-76
2022/08/11 13:29:48;;;;;;;;;;;;;;;34.00;92.26;99598.16;5074029;28;19924;-75
2022/08/11 13:32:19;;;;;;;;;;;;;;;34.29;87.28;99587.25;5075054;28;19939;-75
2022/08/11 13:34:46;;;;;;;;;;;;;;;34.07;90.22;99587.91;5075586;28;19931;-75
2022/08/11 13:37:14;;;;;;;;;;;;;;;34.12;88.36;99579.06;5074763;28;20506;-76
2022/08/11 13:39:46;;;;;;;;;;;;;;;34.10;89.45;99586.78;5074122;28;19924;-76
2022/08/11 13:42:18;;;;;;;;;;;;;;;33.92;90.30;99587.84;5071725;28;19964;-76
2022/08/11 13:44:46;;;;;;;;;;;;;;;34.07;89.96;99587.91;5074561;28;19924;-76
2022/08/11 13:47:14;;;;;;;;;;;;;;;33.52;89.04;99586.66;5074917;28;19925;-76
2022/08/11 13:49:43;;;;;;;;;;;;;;;33.42;93.53;99585.59;5073766;28;20019;-75
2022/08/11 13:52:12;;;;;;;;;;;;;;;33.57;89.40;99574.88;5074571;28;19925;-75
2022/08/11 13:54:41;;;;;;;;;;;;;;;33.94;89.21;99585.94;5074770;28;19932;-76
2022/08/11 13:57:11;;;;;;;;;;;;;;;33.85;90.68;99583.56;5073508;28;19931;-75
2022/08/11 13:59:38;;;;;;;;;;;;;;;34.26;92.09;99589.16;5074572;28;19935;-76
2022/08/11 14:02:12;;;;;;;;;;;;;;;34.32;89.66;99580.28;5073422;28;20338;-76
2022/08/11 14:04:42;;;;;;;;;;;;;;;34.06;88.68;99583.47;5073517;28;19932;-76
2022/08/11 14:07:10;;;;;;;;;;;;;;;34.37;85.58;99577.22;5074286;28;20370;-76
2022/08/11 14:09:40;;;;;;;;;;;;;;;34.06;86.01;99580.56;5074482;28;20375;-76
2022/08/11 14:15:18;;;;;;;;;;;;;;;33.75;88.32;99561.47;5074340;28;19924;-76
2022/08/11 14:17:51;;;;;;;;;;;;;;;33.92;87.57;99561.75;5056756;28;19970;-76
2022/08/11 14:20:21;;;;;;;;;;;;;;;34.05;90.63;99571.09;5074220;28;20299;-76
2022/08/11 14:22:50;;;;;;;;;;;;;;;33.52;86.71;99560.56;5072833;28;20372;-75
2022/08/11 14:25:17;;;;;;;;;;;;;;;33.57;88.62;99550.94;5089832;28;19928;-75
2022/08/11 14:27:44;;;;;;;;;;;;;;;33.39;87.58;99552.75;5072883;28;19924;-75
2022/08/11 14:30:54;;;;;;;;;;;;;;;33.46;86.97;99551.25;5072818;28;19928;-76
2022/08/11 14:32:59;;;;;;;;;;;;;;;33.68;88.82;99550.59;5073923;28;19925;-75
2022/08/11 14:35:27;;;;;;;;;;;;;;;33.84;88.01;99558.03;5073791;28;20020;-75
2022/08/11 14:37:56;;;;;;;;;;;;;;;33.93;86.49;99555.38;5072757;28;19925;-75
2022/08/11 14:49:00;;;;;;;;;;;;;;;34.24;85.37;99539.66;5031620;28;20020;-75
2022/08/11 14:51:28;;;;;;;;;;;;;;;33.19;83.15;99539.06;5031346;28;20023;-75
2022/08/11 14:56:34;;;;;;;;;;;;;;;33.29;83.75;99531.44;5014771;28;19936;-75
2022/08/11 14:56:43;;;;;;;;;;;;;;;34.28;85.76;99539.28;4998749;28;20415;-75
2022/08/11 14:59:11;;;;;;;;;;;;;;;34.13;87.11;99550.81;5031215;28;20103;-75
2022/08/11 15:04:25;;;;;;;;;;;;;;;33.37;84.54;99537.28;5014687;28;19956;-75
2022/08/11 15:06:52;;;;;;;;;;;;;;;33.20;82.26;99526.16;5014858;28;20420;-75
2022/08/11 15:09:20;;;;;;;;;;;;;;;34.25;82.52;99523.03;5031015;28;19931;-75
2022/08/11 15:17:37;;;;;;;;;;;;;;;34.61;85.41;99520.81;5003882;28;20222;-75
2022/08/11 15:25:58;;;;;;;;;;;;;;;34.11;83.27;99513.72;5030155;28;20456;-75
2022/08/11 15:45:49;;;;;;;;;;;;;;;35.11;82.19;99492.97;5047181;28;20273;-76
2022/08/11 15:48:27;;;;;;;;;;;;;;;34.75;80.93;99495.28;5040510;28;19978;-76
2022/08/11 15:50:57;;;;;;;;;;;;;;;34.59;84.97;99494.50;5072986;28;19924;-75
2022/08/11 15:53:36;;;;;;;;;;;;;;;34.23;85.61;99485.91;5072642;28;19924;-76
2022/08/11 15:56:04;;;;;;;;;;;;;;;32.54;83.88;99491.06;5073093;28;19924;-75
2022/08/11 16:04:14;;;;;;;;;;;;;;;33.88;83.16;99488.91;5054755;28;19935;-75
2022/08/11 16:06:43;;;;;;;;;;;;;;;34.24;81.64;99480.88;5073869;28;20298;-75
2022/08/11 16:09:12;;;;;;;;;;;;;;;34.41;82.87;99484.78;5075622;28;19924;-76
2022/08/11 16:11:40;;;;;;;;;;;;;;;34.30;81.72;99487.28;5042450;28;20471;-76
2022/08/11 16:16:56;;;;;;;;;;;;;;;34.55;82.37;99482.50;5076496;28;19924;-77
2022/08/11 16:19:26;;;;;;;;;;;;;;;34.97;82.42;99480.78;5076476;28;19932;-76
2022/08/11 16:21:55;;;;;;;;;;;;;;;34.70;81.47;99476.72;5075828;28;19925;-76
2022/08/11 16:24:23;;;;;;;;;;;;;;;34.49;82.86;99473.97;5076082;28;19970;-76
2022/08/11 16:26:52;;;;;;;;;;;;;;;34.35;81.50;99480.53;5077488;28;20384;-76
2022/08/11 16:29:20;;;;;;;;;;;;;;;34.54;81.44;99469.34;5076149;28;19925;-76
2022/08/11 16:32:15;;;;;;;;;;;;;;;34.60;81.60;99472.81;5076933;28;19925;-76
2022/08/11 16:40:08;;;;;;;;;;;;;;;33.86;84.21;99474.97;5075907;28;19928;-76
2022/08/11 16:48:07;;;;;;;;;;;;;;;33.98;81.63;99469.59;5076521;28;20035;-78
2022/08/11 16:50:36;;;;;;;;;;;;;;;34.13;79.59;99463.84;5076611;28;19978;-77
2022/08/11 16:53:03;;;;;;;;;;;;;;;34.11;79.88;99466.56;5058904;28;19982;-78
2022/08/11 16:55:32;;;;;;;;;;;;;;;34.01;79.28;99468.44;5075436;28;19963;-78
2022/08/11 17:00:49;;;;;;;;;;;;;;;34.08;79.02;99468.47;5076664;28;20434;-78
2022/08/11 17:14:50;;;;;;;;;;;;;;;33.15;78.73;99448.13;5057967;28;19925;-79
2022/08/11 17:17:22;;;;;;;;;;;;;;;33.74;79.18;99450.56;5057063;28;19931;-78
2022/08/11 17:19:51;;;;;;;;;;;;;;;33.16;79.91;99452.59;5073567;28;19933;-78
2022/08/11 17:25:27;;;;;;;;;;;;;;;33.31;80.30;99462.13;5016556;28;20288;-78
2022/08/11 17:27:55;;;;;;;;;;;;;;;33.39;80.42;99456.41;5016352;28;20372;-78
2022/08/11 17:35:27;;;;;;;;;;;;;;;33.79;81.35;99445.97;5016218;28;19964;-78
2022/08/11 17:35:58;;;;;;;;;;;;;;;34.19;86.27;99455.72;5000046;28;20380;-78
2022/08/11 17:38:26;;;;;;;;;;;;;;;34.38;87.63;99456.19;5032851;28;19968;-78
2022/08/11 17:49:14;;;;;;;;;;;;;;;34.08;86.04;99462.66;5016291;28;19925;-78
2022/08/11 18:00:03;;;;;;;;;;;;;;;34.15;85.37;99455.34;5074387;28;19974;-78
2022/08/11 18:05:32;;;;;;;;;;;;;;;33.85;86.03;99452.34;5073507;28;19932;-78
